createdAt,value
2023-03-31T00:03:28.622Z,6.60
2023-03-31T00:07:30.655Z,3.70
2023-03-31T00:11:34.769Z,3.77
2023-03-31T00:15:36.300Z,6.63
2023-03-31T00:19:41.125Z,3.67
2023-03-31T00:23:42.651Z,8.17
2023-03-31T00:27:44.916Z,4.07
2023-03-31T00:31:46.619Z,4.93
2023-03-31T00:35:52.584Z,6.97
2023-03-31T00:39:54.021Z,5.23
2023-03-31T00:44:07.154Z,2.90
2023-03-31T00:48:17.076Z,4.50
2023-03-31T00:52:23.660Z,4.50
2023-03-31T00:56:28.845Z,5.23
2023-03-31T01:00:32.691Z,9.30
2023-03-31T01:04:41.957Z,5.33
2023-03-31T01:08:46.750Z,6.37
2023-03-31T01:12:54.253Z,6.47
2023-03-31T01:16:56.158Z,7.70
2023-03-31T01:21:28.055Z,6.10
2023-03-31T01:25:51.073Z,9.53
2023-03-31T01:30:16.659Z,12.83
2023-03-31T01:34:39.849Z,5.87
2023-03-31T01:39:29.493Z,6.40
2023-03-31T01:43:40.911Z,10.70
2023-03-31T01:47:46.695Z,11.63
2023-03-31T01:51:57.572Z,9.23
2023-03-31T01:56:06.451Z,10.37
2023-03-31T02:00:12.791Z,8.87
2023-03-31T02:04:21.128Z,10.53
2023-03-31T02:08:26.918Z,7.47
2023-03-31T02:12:32.897Z,13.80
2023-03-31T02:16:40.285Z,9.13
2023-03-31T02:20:44.470Z,11.43
2023-03-31T02:24:47.215Z,12.10
2023-03-31T02:28:49.197Z,11.53
2023-03-31T02:32:52.786Z,6.57
2023-03-31T02:36:54.962Z,7.77
2023-03-31T02:40:56.420Z,6.60
2023-03-31T02:45:02.189Z,6.83
2023-03-31T02:49:10.323Z,9.87
2023-03-31T02:53:20.086Z,14.97
2023-03-31T02:57:57.301Z,11.70
2023-03-31T03:02:10.453Z,6.33
2023-03-31T03:06:24.967Z,10.77
2023-03-31T03:10:35.472Z,7.90
2023-03-31T03:14:44.411Z,11.13
2023-03-31T03:18:55.361Z,10.53
2023-03-31T03:22:58.359Z,8.07
2023-03-31T03:27:00.580Z,9.30
2023-03-31T03:31:02.232Z,7.03
2023-03-31T03:35:06.457Z,9.57
2023-03-31T03:39:11.540Z,7.70
2023-03-31T03:43:12.952Z,4.93
2023-03-31T03:47:14.824Z,5.20
2023-03-31T03:51:16.281Z,4.50
2023-03-31T03:55:19.542Z,7.47
2023-03-31T03:59:21.284Z,5.23
2023-03-31T04:03:23.039Z,4.13
2023-03-31T04:07:26.220Z,5.03
2023-03-31T04:11:29.765Z,2.63
2023-03-31T04:15:31.690Z,3.73
2023-03-31T04:19:33.442Z,4.57
2023-03-31T04:23:36.999Z,4.23
2023-03-31T04:27:40.171Z,5.50
2023-03-31T04:31:43.427Z,9.37
2023-03-31T04:35:44.976Z,3.73
2023-03-31T04:39:46.790Z,6.93
2023-03-31T04:43:51.014Z,5.17
2023-03-31T04:47:53.703Z,4.10
2023-03-31T04:51:55.574Z,4.57
2023-03-31T04:55:57.894Z,3.20
2023-03-31T05:00:02.732Z,3.97
2023-03-31T05:04:05.100Z,3.43
2023-03-31T05:08:17.895Z,2.97
2023-03-31T05:12:19.549Z,5.13
2023-03-31T05:16:24.768Z,6.03
2023-03-31T05:20:26.325Z,3.20
2023-03-31T05:24:28.009Z,2.87
2023-03-31T05:28:31.306Z,1.40
2023-03-31T05:32:35.588Z,2.50
2023-03-31T05:36:37.001Z,1.53
2023-03-31T05:40:41.557Z,9.40
2023-03-31T05:44:43.875Z,3.43
2023-03-31T05:48:47.441Z,4.47
2023-03-31T05:52:48.896Z,2.50
2023-03-31T05:56:50.873Z,2.40
2023-03-31T06:01:02.068Z,1.10
2023-03-31T06:05:05.825Z,3.30
2023-03-31T06:09:07.651Z,1.57
2023-03-31T06:13:09.365Z,2.47
2023-03-31T06:17:10.784Z,1.37
2023-03-31T06:21:15.622Z,1.40
2023-03-31T06:25:17.309Z,1.30
2023-03-31T06:29:19.540Z,1.67
2023-03-31T06:33:21.007Z,1.87
2023-03-31T06:37:24.136Z,0.97
2023-03-31T06:41:25.846Z,0.70
2023-03-31T06:45:29.763Z,1.17
2023-03-31T06:49:31.599Z,2.77
2023-03-31T06:53:36.140Z,1.17
2023-03-31T06:57:37.625Z,1.13
2023-03-31T07:01:39.233Z,2.27
2023-03-31T07:05:40.995Z,1.57
2023-03-31T07:09:44.136Z,1.27
2023-03-31T07:13:46.868Z,0.93
2023-03-31T07:17:50.425Z,1.47
2023-03-31T07:21:51.999Z,2.77
2023-03-31T07:25:55.003Z,1.17
2023-03-31T07:29:59.104Z,1.27
2023-03-31T07:34:01.954Z,1.77
2023-03-31T07:38:03.423Z,0.80
2023-03-31T07:42:07.199Z,2.00
2023-03-31T07:46:14.733Z,0.73
2023-03-31T07:50:17.706Z,1.10
2023-03-31T07:54:19.724Z,3.97
2023-03-31T07:58:22.576Z,1.50
2023-03-31T08:02:24.156Z,2.63
2023-03-31T08:06:26.941Z,4.20
2023-03-31T08:10:28.817Z,2.97
2023-03-31T08:14:40.785Z,3.83
2023-03-31T08:18:44.946Z,5.43
2023-03-31T08:22:46.416Z,6.60
2023-03-31T08:26:48.203Z,8.70
2023-03-31T08:30:51.321Z,3.23
2023-03-31T08:34:54.526Z,5.50
2023-03-31T08:38:56.542Z,4.47
2023-03-31T08:43:04.197Z,3.60
2023-03-31T08:47:13.116Z,5.93
2023-03-31T08:51:18.750Z,4.27
2023-03-31T08:55:25.288Z,4.43
2023-03-31T08:59:29.658Z,7.67
2023-03-31T09:03:44.402Z,4.87
2023-03-31T09:07:54.609Z,6.60
2023-03-31T09:12:00.287Z,7.87
2023-03-31T09:16:10.005Z,6.40
2023-03-31T09:20:18.614Z,6.97
2023-03-31T09:24:23.481Z,5.10
2023-03-31T09:28:34.319Z,5.43
2023-03-31T09:32:38.277Z,7.57
2023-03-31T09:36:41.895Z,6.93
2023-03-31T09:40:43.908Z,7.97
2023-03-31T09:44:48.752Z,8.00
2023-03-31T09:48:55.314Z,6.57
2023-03-31T09:53:00.319Z,7.90
2023-03-31T09:57:02.174Z,8.73
2023-03-31T10:01:06.571Z,7.30
2023-03-31T10:05:22.714Z,5.53
2023-03-31T10:09:29.941Z,8.63
2023-03-31T10:13:41.456Z,8.03
2023-03-31T10:17:54.846Z,6.83
2023-03-31T10:21:59.391Z,6.47
2023-03-31T10:26:04.963Z,5.53
2023-03-31T10:30:11.226Z,6.13
2023-03-31T10:34:16.104Z,8.53
2023-03-31T10:38:30.608Z,4.00
2023-03-31T10:42:33.680Z,7.60
2023-03-31T10:46:47.463Z,7.83
2023-03-31T10:50:49.295Z,5.60
2023-03-31T10:54:54.749Z,6.33
2023-03-31T10:59:11.535Z,5.23
2023-03-31T11:03:55.122Z,5.33
2023-03-31T11:08:10.425Z,5.50
2023-03-31T11:12:19.531Z,5.63
2023-03-31T11:16:28.352Z,6.60
2023-03-31T11:20:38.042Z,5.07
2023-03-31T11:25:07.387Z,4.47
2023-03-31T11:29:19.878Z,4.53
2023-03-31T11:34:08.652Z,8.37
2023-03-31T11:38:34.892Z,7.40
2023-03-31T11:42:49.257Z,7.77
2023-03-31T11:46:54.938Z,7.70
2023-03-31T11:50:58.629Z,7.10
2023-03-31T11:55:11.642Z,7.77
2023-03-31T11:59:16.280Z,7.67
2023-03-31T12:03:23.633Z,8.40
2023-03-31T12:07:30.903Z,9.23
2023-03-31T12:11:40.109Z,9.33
2023-03-31T12:15:46.166Z,5.93
2023-03-31T12:19:50.379Z,5.93
2023-03-31T12:23:52.656Z,6.00
2023-03-31T12:27:56.307Z,5.83
2023-03-31T12:32:03.715Z,6.20
2023-03-31T12:36:23.314Z,4.40
2023-03-31T12:40:41.586Z,7.43
2023-03-31T12:44:55.838Z,9.53
2023-03-31T12:49:14.904Z,8.70
2023-03-31T12:53:24.882Z,5.13
2023-03-31T12:57:27.150Z,4.93
2023-03-31T13:01:30.429Z,7.00
2023-03-31T13:05:45.772Z,9.07
2023-03-31T13:09:50.594Z,6.97
2023-03-31T13:18:24.452Z,5.30
2023-03-31T13:22:36.002Z,6.13
2023-03-31T13:26:40.426Z,6.90
2023-03-31T13:31:01.835Z,4.77
2023-03-31T13:35:13.768Z,7.73
2023-03-31T13:39:37.965Z,7.03
2023-03-31T13:43:57.419Z,6.87
2023-03-31T13:48:20.458Z,7.07
2023-03-31T13:52:45.460Z,7.17
2023-03-31T13:57:00.747Z,4.27
2023-03-31T14:01:41.275Z,5.07
2023-03-31T14:05:45.561Z,5.10
2023-03-31T14:09:52.640Z,4.80
2023-03-31T14:14:06.401Z,4.10
2023-03-31T14:18:10.462Z,3.67
2023-03-31T14:22:23.470Z,2.17
2023-03-31T14:26:42.171Z,2.00
2023-03-31T14:30:54.445Z,4.57
2023-03-31T14:35:09.579Z,1.50
2023-03-31T14:39:12.712Z,2.80
2023-03-31T14:43:20.914Z,3.27
2023-03-31T14:47:24.587Z,6.47
2023-03-31T14:51:28.594Z,5.53
2023-03-31T14:55:54.169Z,4.57
2023-03-31T14:59:58.290Z,3.73
2023-03-31T15:04:00.886Z,6.63
2023-03-31T15:08:07.000Z,4.63
2023-03-31T15:12:14.008Z,7.10
2023-03-31T15:16:37.285Z,5.43
2023-03-31T15:20:41.412Z,5.27
2023-03-31T15:24:43.790Z,7.10
2023-03-31T15:28:52.517Z,4.60
2023-03-31T15:33:04.139Z,4.97
2023-03-31T15:37:13.554Z,4.20
2023-03-31T15:41:17.339Z,3.87
2023-03-31T15:45:44.926Z,4.70
2023-03-31T15:49:57.426Z,4.60
2023-03-31T15:53:59.038Z,4.07
2023-03-31T15:58:01.517Z,5.17
2023-03-31T16:02:03.072Z,2.97
2023-03-31T16:06:14.848Z,5.13
2023-03-31T16:10:19.343Z,4.70
2023-03-31T16:14:26.686Z,7.13
2023-03-31T16:18:33.739Z,3.57
2023-03-31T16:22:41.451Z,5.67
2023-03-31T16:26:43.707Z,6.17
2023-03-31T16:30:45.793Z,5.30
2023-03-31T16:34:56.979Z,3.10
2023-03-31T16:39:02.611Z,5.93
2023-03-31T16:43:09.010Z,4.90
2023-03-31T16:47:15.055Z,5.20
2023-03-31T16:51:20.284Z,4.60
2023-03-31T16:55:24.901Z,5.53
2023-03-31T16:59:28.125Z,6.10
2023-03-31T17:03:30.084Z,4.93
2023-03-31T17:07:32.047Z,5.40
2023-03-31T17:11:42.080Z,3.57
2023-03-31T17:15:43.631Z,2.73
2023-03-31T17:19:45.348Z,5.87
2023-03-31T17:23:49.483Z,5.27
2023-03-31T17:27:52.641Z,2.73
2023-03-31T17:31:54.090Z,6.00
2023-03-31T17:35:57.100Z,3.27
2023-03-31T17:40:01.266Z,3.70
2023-03-31T17:44:04.430Z,4.50
2023-03-31T17:48:05.951Z,4.23
2023-03-31T17:52:07.599Z,3.80
2023-03-31T17:56:09.589Z,4.97
2023-03-31T18:00:15.054Z,1.90
2023-03-31T18:04:16.868Z,6.67
2023-03-31T18:08:19.651Z,3.63
2023-03-31T18:12:22.550Z,3.93
2023-03-31T18:16:27.551Z,4.03
2023-03-31T18:20:30.652Z,3.90
2023-03-31T18:24:32.349Z,4.87
2023-03-31T18:28:33.823Z,4.30
2023-03-31T18:32:36.956Z,5.47
2023-03-31T18:36:39.215Z,6.17
2023-03-31T18:40:49.379Z,7.30
2023-03-31T18:44:51.138Z,5.27
2023-03-31T18:48:54.171Z,3.60
2023-03-31T18:52:56.631Z,3.27
2023-03-31T18:56:59.427Z,4.10
2023-03-31T19:01:01.476Z,4.13
2023-03-31T19:05:07.782Z,4.80
2023-03-31T19:09:09.885Z,4.50
2023-03-31T19:13:15.108Z,3.10
2023-03-31T19:17:18.921Z,3.70
2023-03-31T19:21:22.288Z,3.30
2023-03-31T19:25:24.020Z,2.87
2023-03-31T19:29:25.456Z,2.50
2023-03-31T19:33:27.216Z,4.13
2023-03-31T19:37:30.209Z,2.37
2023-03-31T19:41:33.493Z,2.77
2023-03-31T19:45:36.551Z,2.83
2023-03-31T19:49:38.394Z,5.70
2023-03-31T19:53:41.302Z,4.10
2023-03-31T19:57:44.131Z,2.97
2023-03-31T20:01:45.887Z,4.60
2023-03-31T20:05:48.142Z,5.57
2023-03-31T20:09:51.150Z,3.10
2023-03-31T20:13:52.925Z,2.07
2023-03-31T20:17:54.919Z,1.70
2023-03-31T20:21:56.434Z,3.57
2023-03-31T20:26:00.721Z,3.47
2023-03-31T20:30:02.253Z,3.47
2023-03-31T20:34:04.617Z,4.80
2023-03-31T20:38:06.280Z,2.67
2023-03-31T20:42:09.498Z,1.77
2023-03-31T20:46:12.454Z,3.83
2023-03-31T20:50:14.076Z,4.97
2023-03-31T20:54:15.529Z,4.70
2023-03-31T20:58:19.564Z,3.43
2023-03-31T21:02:22.328Z,3.20
2023-03-31T21:06:26.148Z,2.77
2023-03-31T21:10:27.866Z,5.33
2023-03-31T21:14:32.212Z,3.33
2023-03-31T21:18:34.753Z,2.60
2023-03-31T21:22:36.125Z,3.40
2023-03-31T21:26:40.937Z,2.90
2023-03-31T21:30:50.798Z,2.80
2023-03-31T21:34:52.778Z,2.80
2023-03-31T21:38:54.753Z,3.17
2023-03-31T21:42:58.009Z,2.57
2023-03-31T21:47:03.315Z,4.03
2023-03-31T21:51:04.875Z,2.20
2023-03-31T21:55:06.844Z,2.80
2023-03-31T21:59:08.721Z,1.97
2023-03-31T22:07:18.319Z,3.07
2023-03-31T22:11:22.381Z,1.87
2023-03-31T22:15:24.156Z,1.43
2023-03-31T22:19:27.394Z,2.17
2023-03-31T22:23:30.114Z,1.40
2023-03-31T22:27:31.655Z,2.07
2023-03-31T22:31:35.285Z,2.60
2023-03-31T22:35:38.097Z,2.70
2023-03-31T22:39:41.025Z,3.07
2023-03-31T22:43:45.323Z,3.57
2023-03-31T22:47:47.705Z,2.73
2023-03-31T22:51:53.739Z,1.30
2023-03-31T22:55:55.560Z,2.57
2023-03-31T22:59:58.822Z,2.47
2023-03-31T23:04:01.431Z,3.10
2023-03-31T23:08:04.695Z,1.73
2023-03-31T23:12:06.379Z,1.90
2023-03-31T23:16:10.176Z,1.43
2023-03-31T23:20:12.840Z,1.20
2023-03-31T23:24:15.860Z,2.13
2023-03-31T23:28:17.443Z,0.60
2023-03-31T23:32:18.960Z,1.23
2023-03-31T23:36:20.747Z,0.50
2023-03-31T23:40:26.107Z,0.90
2023-03-31T23:44:27.819Z,0.93
2023-03-31T23:48:29.556Z,0.47
2023-03-31T23:52:30.953Z,0.77
2023-03-31T23:56:34.021Z,0.90
